Time;durP1;ratioP1;P1;durP2;ratioP2;P2;SDS_P1;SDS_P2;PMS_P1;PMS_P2;Temp;Humidity;BMP_temperature;BMP_pressure;BME280_temperature;BME280_humidity;BME280_pressure;Samples;Min_cycle;Max_cycle;Signal;HPM_P1;HPM_P2
2023/02/11 00:00:58;;;;;;;106.70;61.90;;;;;;;-128.00;-1.00;-1.00;104890;1264;1004590;-75
2023/02/11 00:03:26;;;;;;;112.90;61.70;;;;;;;-128.00;-1.00;-1.00;104902;1263;1046018;-75
2023/02/11 00:06:00;;;;;;;110.10;64.20;;;;;;;-128.00;-1.00;-1.00;104906;1263;1004438;-75
2023/02/11 00:08:27;;;;;;;120.70;64.60;;;;;;;-128.00;-1.00;-1.00;104906;1263;1061453;-74
2023/02/11 00:10:55;;;;;;;109.50;62.80;;;;;;;-128.00;-1.00;-1.00;104913;1264;1004614;-75
2023/02/11 00:13:23;;;;;;;110.80;62.70;;;;;;;-128.00;-1.00;-1.00;104805;1263;1004251;-75
2023/02/11 00:15:49;;;;;;;112.20;62.20;;;;;;;-128.00;-1.00;-1.00;104788;1264;1003662;-75
2023/02/11 00:18:16;;;;;;;109.50;59.10;;;;;;;-128.00;-1.00;-1.00;104923;1264;1004361;-75
2023/02/11 00:20:43;;;;;;;101.90;56.40;;;;;;;-128.00;-1.00;-1.00;104784;1263;1004056;-75
2023/02/11 00:23:10;;;;;;;89.40;52.70;;;;;;;-128.00;-1.00;-1.00;104823;1263;1004119;-75
2023/02/11 00:25:44;;;;;;;96.30;53.30;;;;;;;-128.00;-1.00;-1.00;104149;1264;1004153;-75
2023/02/11 00:28:11;;;;;;;93.70;53.80;;;;;;;-128.00;-1.00;-1.00;104901;1264;1047092;-75
2023/02/11 00:30:38;;;;;;;96.00;52.00;;;;;;;-128.00;-1.00;-1.00;104655;1264;1004172;-75
2023/02/11 00:33:04;;;;;;;89.30;52.40;;;;;;;-128.00;-1.00;-1.00;104922;1264;1004756;-75
2023/02/11 00:35:31;;;;;;;85.00;49.00;;;;;;;-128.00;-1.00;-1.00;104799;1264;1003797;-75
2023/02/11 00:37:58;;;;;;;83.30;45.60;;;;;;;-128.00;-1.00;-1.00;104916;1263;1004209;-75
2023/02/11 00:40:24;;;;;;;85.10;49.10;;;;;;;-128.00;-1.00;-1.00;104902;1263;1004728;-75
2023/02/11 00:42:51;;;;;;;77.20;44.20;;;;;;;-128.00;-1.00;-1.00;104037;1264;2003398;-74
2023/02/11 00:45:20;;;;;;;81.30;45.90;;;;;;;-128.00;-1.00;-1.00;104634;1263;1003793;-75
2023/02/11 00:47:46;;;;;;;81.80;44.00;;;;;;;-128.00;-1.00;-1.00;104889;1265;1055633;-75
2023/02/11 00:50:13;;;;;;;78.70;45.70;;;;;;;-128.00;-1.00;-1.00;104895;1263;1004563;-75
2023/02/11 00:52:40;;;;;;;83.50;45.50;;;;;;;-128.00;-1.00;-1.00;104929;1263;1004911;-75
2023/02/11 00:55:07;;;;;;;85.00;49.80;;;;;;;-128.00;-1.00;-1.00;104916;1264;1003720;-75
2023/02/11 00:57:34;;;;;;;80.20;45.10;;;;;;;-128.00;-1.00;-1.00;104909;1263;1003794;-75
2023/02/11 01:00:03;;;;;;;78.60;47.20;;;;;;;-128.00;-1.00;-1.00;104795;1264;1004190;-74
2023/02/11 01:02:30;;;;;;;76.40;45.30;;;;;;;-128.00;-1.00;-1.00;104934;1263;1059077;-75
2023/02/11 01:04:58;;;;;;;80.40;44.00;;;;;;;-128.00;-1.00;-1.00;104909;1263;1004060;-74
2023/02/11 01:07:26;;;;;;;76.90;41.60;;;;;;;-128.00;-1.00;-1.00;104778;1263;1046774;-75
2023/02/11 01:09:53;;;;;;;69.00;39.80;;;;;;;-128.00;-1.00;-1.00;104002;1263;1004306;-75
2023/02/11 01:12:20;;;;;;;74.00;42.20;;;;;;;-128.00;-1.00;-1.00;104154;1263;1004601;-74
2023/02/11 01:14:47;;;;;;;71.40;41.00;;;;;;;-128.00;-1.00;-1.00;104899;1263;1003547;-75
2023/02/11 01:17:14;;;;;;;68.90;40.50;;;;;;;-128.00;-1.00;-1.00;104902;1263;1004112;-74
2023/02/11 01:19:40;;;;;;;68.50;40.10;;;;;;;-128.00;-1.00;-1.00;104958;1263;1004402;-74
2023/02/11 01:22:07;;;;;;;70.00;40.20;;;;;;;-128.00;-1.00;-1.00;104809;1264;1004031;-75
2023/02/11 01:24:34;;;;;;;70.10;40.90;;;;;;;-128.00;-1.00;-1.00;104946;1263;1004218;-74
2023/02/11 01:27:01;;;;;;;77.80;44.00;;;;;;;-128.00;-1.00;-1.00;104906;1264;1004832;-74
2023/02/11 01:29:27;;;;;;;71.30;42.80;;;;;;;-128.00;-1.00;-1.00;104035;1264;1005125;-74
2023/02/11 01:31:54;;;;;;;71.70;40.80;;;;;;;-128.00;-1.00;-1.00;104921;1263;1004022;-74
2023/02/11 01:34:20;;;;;;;67.70;40.80;;;;;;;-128.00;-1.00;-1.00;104925;1263;1003645;-74
2023/02/11 01:36:47;;;;;;;67.20;39.90;;;;;;;-128.00;-1.00;-1.00;104912;1263;1004130;-74
2023/02/11 01:39:14;;;;;;;65.40;41.10;;;;;;;-128.00;-1.00;-1.00;104623;1263;1003589;-74
2023/02/11 01:41:40;;;;;;;64.90;38.60;;;;;;;-128.00;-1.00;-1.00;104906;1263;1004290;-74
2023/02/11 01:44:25;;;;;;;75.80;43.50;;;;;;;-128.00;-1.00;-1.00;104930;1263;1003700;-74
2023/02/11 01:46:53;;;;;;;78.50;46.70;;;;;;;-128.00;-1.00;-1.00;104933;1263;1062443;-75
2023/02/11 01:49:29;;;;;;;68.70;40.90;;;;;;;-128.00;-1.00;-1.00;104898;1264;1004981;-75
2023/02/11 01:51:56;;;;;;;73.00;41.30;;;;;;;-128.00;-1.00;-1.00;104804;1263;1060623;-75
2023/02/11 01:57:26;;;;;;;;;;;;;;;-128.00;-1.00;-1.00;104922;1263;1046513;-74
2023/02/11 01:59:55;;;;;;;;;;;;;;;-128.00;-1.00;-1.00;104947;1263;1061839;-74
2023/02/11 02:02:29;;;;;;;61.70;35.90;;;;;;;-128.00;-1.00;-1.00;104927;1263;1055204;-74
2023/02/11 02:05:06;;;;;;;65.50;38.20;;;;;;;-128.00;-1.00;-1.00;104908;1263;1059572;-74
2023/02/11 02:07:41;;;;;;;73.70;39.60;;;;;;;-128.00;-1.00;-1.00;104940;1263;1045315;-74
2023/02/11 02:10:14;;;;;;;71.40;41.40;;;;;;;-128.00;-1.00;-1.00;104920;1263;1046432;-74
2023/02/11 02:12:40;;;;;;;67.30;39.80;;;;;;;-128.00;-1.00;-1.00;104900;1263;1062180;-75
2023/02/11 02:15:18;;;;;;;68.60;40.40;;;;;;;-128.00;-1.00;-1.00;104934;1264;1004844;-74
2023/02/11 02:17:54;;;;;;;61.30;36.30;;;;;;;-128.00;-1.00;-1.00;104750;1263;1059018;-75
2023/02/11 02:20:36;;;;;;;64.30;37.70;;;;;;;-128.00;-1.00;-1.00;104885;1263;1046360;-75
2023/02/11 02:24:01;;;;;;;72.20;41.70;;;;;;;-128.00;-1.00;-1.00;104943;1263;1047139;-75
2023/02/11 02:26:52;;;;;;;65.70;36.10;;;;;;;-128.00;-1.00;-1.00;104227;1272;1061788;-75
2023/02/11 02:29:25;;;;;;;64.00;34.70;;;;;;;-128.00;-1.00;-1.00;104234;1272;1056333;-75
2023/02/11 02:32:13;;;;;;;89.90;41.40;;;;;;;-128.00;-1.00;-1.00;104234;1273;1061789;-74
2023/02/11 02:35:11;;;;;;;103.80;48.30;;;;;;;-128.00;-1.00;-1.00;104239;1272;1045930;-74
2023/02/11 02:38:05;;;;;;;74.60;39.00;;;;;;;-128.00;-1.00;-1.00;103761;1276;1046400;-74
2023/02/11 02:40:39;;;;;;;62.40;36.00;;;;;;;-128.00;-1.00;-1.00;103778;1276;1062480;-75
2023/02/11 02:43:08;;;;;;;55.30;33.50;;;;;;;-128.00;-1.00;-1.00;103795;1276;1055290;-75
2023/02/11 02:45:35;;;;;;;61.20;35.10;;;;;;;-128.00;-1.00;-1.00;103633;1276;1060081;-75
2023/02/11 02:48:02;;;;;;;58.90;33.10;;;;;;;-128.00;-1.00;-1.00;103757;1276;1004478;-75
2023/02/11 02:50:36;;;;;;;64.80;37.20;;;;;;;-128.00;-1.00;-1.00;103773;1276;1004170;-75
2023/02/11 02:53:16;;;;;;;59.40;34.70;;;;;;;-128.00;-1.00;-1.00;103429;1280;1063425;-75
2023/02/11 02:56:03;;;;;;;;;;;;;;;-128.00;-1.00;-1.00;103462;1280;1055627;-75
2023/02/11 02:58:54;;;;;;;55.60;35.30;;;;;;;-128.00;-1.00;-1.00;102701;1286;1059945;-75
2023/02/11 03:01:23;;;;;;;59.20;35.70;;;;;;;-128.00;-1.00;-1.00;103449;1279;1047597;-75
2023/02/11 03:04:04;;;;;;;59.60;36.10;;;;;;;-128.00;-1.00;-1.00;103394;1279;1046522;-75
2023/02/11 03:06:36;;;;;;;59.00;35.70;;;;;;;-128.00;-1.00;-1.00;103551;1279;1062549;-75
2023/02/11 03:09:15;;;;;;;60.20;36.80;;;;;;;-128.00;-1.00;-1.00;103545;1279;1055294;-74
2023/02/11 03:11:42;;;;;;;59.80;37.30;;;;;;;-128.00;-1.00;-1.00;103544;1279;1059290;-74
2023/02/11 03:14:14;;;;;;;58.60;36.00;;;;;;;-128.00;-1.00;-1.00;103604;1275;1004068;-75
2023/02/11 03:16:44;;;;;;;58.00;36.80;;;;;;;-128.00;-1.00;-1.00;104011;1275;1046515;-74
2023/02/11 03:19:14;;;;;;;;;;;;;;;-128.00;-1.00;-1.00;104052;1276;1062439;-74
2023/02/11 03:21:42;;;;;;;;;;;;;;;-128.00;-1.00;-1.00;104050;1274;1054839;-74
2023/02/11 03:24:23;;;;;;;57.80;35.60;;;;;;;-128.00;-1.00;-1.00;104042;1273;1004703;-74
2023/02/11 03:26:53;;;;;;;56.20;33.90;;;;;;;-128.00;-1.00;-1.00;104086;1273;1045669;-74
2023/02/11 03:29:26;;;;;;;62.60;36.80;;;;;;;-128.00;-1.00;-1.00;104132;1273;1047360;-75
2023/02/11 03:32:04;;;;;;;60.50;37.50;;;;;;;-128.00;-1.00;-1.00;104111;1273;1063007;-75
2023/02/11 03:35:07;;;;;;;66.20;40.30;;;;;;;-128.00;-1.00;-1.00;104158;1273;1057033;-75
2023/02/11 03:37:39;;;;;;;66.80;43.00;;;;;;;-128.00;-1.00;-1.00;104207;1273;1058700;-75
2023/02/11 03:40:12;;;;;;;74.10;46.00;;;;;;;-128.00;-1.00;-1.00;104205;1272;1046934;-75
2023/02/11 03:42:47;;;;;;;71.40;43.60;;;;;;;-128.00;-1.00;-1.00;104227;1272;1047072;-74
2023/02/11 03:45:18;;;;;;;82.40;50.80;;;;;;;-128.00;-1.00;-1.00;104274;1273;1062609;-75
2023/02/11 03:47:49;;;;;;;80.50;47.50;;;;;;;-128.00;-1.00;-1.00;104196;1272;1057274;-75
2023/02/11 03:50:19;;;;;;;83.40;48.40;;;;;;;-128.00;-1.00;-1.00;104232;1272;1059343;-75
2023/02/11 03:52:48;;;;;;;85.00;50.50;;;;;;;-128.00;-1.00;-1.00;104197;1272;1046082;-75
2023/02/11 03:55:18;;;;;;;77.90;46.60;;;;;;;-128.00;-1.00;-1.00;104229;1272;1046814;-75
2023/02/11 03:57:46;;;;;;;83.40;48.20;;;;;;;-128.00;-1.00;-1.00;104243;1272;1062085;-75
2023/02/11 04:00:14;;;;;;;86.20;48.10;;;;;;;-128.00;-1.00;-1.00;104236;1272;1003658;-74
2023/02/11 04:02:42;;;;;;;86.80;47.80;;;;;;;-128.00;-1.00;-1.00;104187;1272;1003826;-75
2023/02/11 04:05:15;;;;;;;90.20;51.90;;;;;;;-128.00;-1.00;-1.00;103456;1272;1003977;-75
2023/02/11 04:07:42;;;;;;;86.20;48.60;;;;;;;-128.00;-1.00;-1.00;104115;1273;1046223;-75
2023/02/11 04:10:10;;;;;;;81.50;47.20;;;;;;;-128.00;-1.00;-1.00;104184;1272;1004192;-75
2023/02/11 04:12:37;;;;;;;86.00;48.30;;;;;;;-128.00;-1.00;-1.00;104291;1263;1056219;-75
2023/02/11 04:15:04;;;;;;;93.40;50.10;;;;;;;-128.00;-1.00;-1.00;104907;1263;1003433;-75
2023/02/11 04:17:31;;;;;;;94.50;50.70;;;;;;;-128.00;-1.00;-1.00;104946;1264;1005280;-75
2023/02/11 04:19:57;;;;;;;99.90;53.50;;;;;;;-128.00;-1.00;-1.00;104932;1263;1004613;-75
2023/02/11 04:22:24;;;;;;;100.30;51.80;;;;;;;-128.00;-1.00;-1.00;104912;1263;1003286;-74
2023/02/11 04:24:51;;;;;;;90.50;50.90;;;;;;;-128.00;-1.00;-1.00;104929;1263;1004368;-75
2023/02/11 04:27:17;;;;;;;92.00;50.80;;;;;;;-128.00;-1.00;-1.00;104894;1264;1005333;-75
2023/02/11 04:29:44;;;;;;;115.00;61.40;;;;;;;-128.00;-1.00;-1.00;104928;1263;1004578;-75
2023/02/11 04:32:11;;;;;;;123.60;68.80;;;;;;;-128.00;-1.00;-1.00;104937;1264;1004818;-74
2023/02/11 04:34:37;;;;;;;112.00;64.20;;;;;;;-128.00;-1.00;-1.00;104910;1263;1004622;-75
2023/02/11 04:37:04;;;;;;;99.50;56.10;;;;;;;-128.00;-1.00;-1.00;104937;1263;1003840;-75
2023/02/11 04:39:31;;;;;;;94.20;57.60;;;;;;;-128.00;-1.00;-1.00;104905;1263;1004928;-75
2023/02/11 04:41:57;;;;;;;94.50;54.50;;;;;;;-128.00;-1.00;-1.00;104919;1264;1004890;-74
2023/02/11 04:44:24;;;;;;;76.20;47.10;;;;;;;-128.00;-1.00;-1.00;104924;1263;1004429;-74
2023/02/11 04:46:51;;;;;;;71.60;43.20;;;;;;;-128.00;-1.00;-1.00;104939;1263;1004160;-74
2023/02/11 04:49:17;;;;;;;66.30;41.00;;;;;;;-128.00;-1.00;-1.00;104924;1263;1003830;-74
2023/02/11 04:51:44;;;;;;;61.90;38.10;;;;;;;-128.00;-1.00;-1.00;104578;1264;1004977;-75
2023/02/11 04:54:11;;;;;;;62.00;35.00;;;;;;;-128.00;-1.00;-1.00;104953;1263;1003690;-74
2023/02/11 04:56:38;;;;;;;50.50;29.70;;;;;;;-128.00;-1.00;-1.00;104951;1263;1004909;-75
2023/02/11 04:59:05;;;;;;;53.80;29.10;;;;;;;-128.00;-1.00;-1.00;104898;1263;1004364;-74
2023/02/11 05:01:32;;;;;;;47.30;26.10;;;;;;;-128.00;-1.00;-1.00;104923;1264;1003653;-74
2023/02/11 05:03:58;;;;;;;37.70;22.50;;;;;;;-128.00;-1.00;-1.00;104900;1264;1003872;-74
2023/02/11 05:06:25;;;;;;;40.70;23.30;;;;;;;-128.00;-1.00;-1.00;104915;1263;1003642;-74
2023/02/11 05:08:52;;;;;;;37.80;22.90;;;;;;;-128.00;-1.00;-1.00;104922;1264;1003726;-75
2023/02/11 05:11:21;;;;;;;35.70;22.10;;;;;;;-128.00;-1.00;-1.00;104911;1264;1004772;-75
2023/02/11 05:13:48;;;;;;;33.30;23.40;;;;;;;-128.00;-1.00;-1.00;104946;1264;1056156;-75
2023/02/11 05:16:16;;;;;;;34.70;22.20;;;;;;;-128.00;-1.00;-1.00;104830;1263;1004562;-74
2023/02/11 05:18:44;;;;;;;38.40;23.90;;;;;;;-128.00;-1.00;-1.00;104905;1263;1004120;-75
2023/02/11 05:21:16;;;;;;;39.10;24.50;;;;;;;-128.00;-1.00;-1.00;104823;1263;1004197;-75
2023/02/11 05:23:44;;;;;;;31.10;20.50;;;;;;;-128.00;-1.00;-1.00;104691;1263;1063112;-75
2023/02/11 05:26:11;;;;;;;30.80;19.90;;;;;;;-128.00;-1.00;-1.00;104906;1263;1004606;-76
2023/02/11 05:28:38;;;;;;;34.10;20.80;;;;;;;-128.00;-1.00;-1.00;104900;1263;1004786;-75
2023/02/11 05:31:05;;;;;;;31.80;20.70;;;;;;;-128.00;-1.00;-1.00;104915;1264;1004580;-75
2023/02/11 05:33:32;;;;;;;32.70;21.10;;;;;;;-128.00;-1.00;-1.00;104934;1263;1004340;-75
2023/02/11 05:36:08;;;;;;;30.40;20.90;;;;;;;-128.00;-1.00;-1.00;104928;1263;1004245;-75
2023/02/11 05:38:36;;;;;;;29.60;19.00;;;;;;;-128.00;-1.00;-1.00;104801;1264;1057049;-74
2023/02/11 05:41:04;;;;;;;34.50;21.90;;;;;;;-128.00;-1.00;-1.00;104889;1263;1004522;-74
2023/02/11 05:43:31;;;;;;;35.40;21.40;;;;;;;-128.00;-1.00;-1.00;104926;1265;1003862;-75
2023/02/11 05:45:57;;;;;;;29.50;20.00;;;;;;;-128.00;-1.00;-1.00;104933;1264;1003240;-74
2023/02/11 05:48:24;;;;;;;31.00;19.60;;;;;;;-128.00;-1.00;-1.00;104695;1263;1004138;-74
2023/02/11 05:50:51;;;;;;;32.70;20.70;;;;;;;-128.00;-1.00;-1.00;104927;1264;1003976;-74
2023/02/11 05:53:17;;;;;;;30.00;20.00;;;;;;;-128.00;-1.00;-1.00;104905;1263;1004525;-75
2023/02/11 05:55:44;;;;;;;32.00;21.00;;;;;;;-128.00;-1.00;-1.00;104736;1263;1004187;-75
2023/02/11 05:58:11;;;;;;;28.10;19.90;;;;;;;-128.00;-1.00;-1.00;104929;1263;1004599;-74
2023/02/11 06:00:38;;;;;;;28.70;19.10;;;;;;;-128.00;-1.00;-1.00;104907;1263;1005123;-75
2023/02/11 06:03:04;;;;;;;31.70;19.60;;;;;;;-128.00;-1.00;-1.00;104938;1264;1003864;-74
2023/02/11 06:05:31;;;;;;;28.30;19.30;;;;;;;-128.00;-1.00;-1.00;104921;1264;1004653;-75
2023/02/11 06:07:58;;;;;;;28.40;18.20;;;;;;;-128.00;-1.00;-1.00;104941;1263;1004128;-75
2023/02/11 06:10:25;;;;;;;24.00;17.70;;;;;;;-128.00;-1.00;-1.00;104953;1264;1003514;-74
2023/02/11 06:12:52;;;;;;;30.60;19.70;;;;;;;-128.00;-1.00;-1.00;104919;1264;1004239;-74
2023/02/11 06:15:19;;;;;;;29.50;19.40;;;;;;;-128.00;-1.00;-1.00;104935;1263;1004623;-75
2023/02/11 06:17:45;;;;;;;24.20;17.10;;;;;;;-128.00;-1.00;-1.00;104142;1263;1004549;-75
2023/02/11 06:20:12;;;;;;;25.00;16.30;;;;;;;-128.00;-1.00;-1.00;104910;1263;1005160;-75
2023/02/11 06:22:39;;;;;;;23.00;16.40;;;;;;;-128.00;-1.00;-1.00;104825;1263;1004026;-75
2023/02/11 06:25:06;;;;;;;26.70;19.00;;;;;;;-128.00;-1.00;-1.00;104895;1263;1004341;-75
2023/02/11 06:27:32;;;;;;;23.50;16.90;;;;;;;-128.00;-1.00;-1.00;104914;1264;1003922;-75
2023/02/11 06:29:59;;;;;;;27.20;19.20;;;;;;;-128.00;-1.00;-1.00;104754;1263;1004168;-73
2023/02/11 06:32:27;;;;;;;26.30;17.90;;;;;;;-128.00;-1.00;-1.00;104734;1264;1004615;-75
2023/02/11 06:34:53;;;;;;;27.30;18.10;;;;;;;-128.00;-1.00;-1.00;104939;1264;1003686;-75
2023/02/11 06:37:20;;;;;;;27.40;18.00;;;;;;;-128.00;-1.00;-1.00;104854;1264;1004380;-74
2023/02/11 06:39:47;;;;;;;26.50;18.10;;;;;;;-128.00;-1.00;-1.00;104193;1264;1004519;-75
2023/02/11 06:42:14;;;;;;;24.70;18.50;;;;;;;-128.00;-1.00;-1.00;104953;1264;1004936;-75
2023/02/11 06:44:40;;;;;;;27.90;18.90;;;;;;;-128.00;-1.00;-1.00;104951;1264;1003724;-75
2023/02/11 06:47:07;;;;;;;25.20;17.30;;;;;;;-128.00;-1.00;-1.00;104984;1264;1003471;-75
2023/02/11 06:49:34;;;;;;;26.80;20.00;;;;;;;-128.00;-1.00;-1.00;104920;1264;1004556;-75
2023/02/11 06:52:00;;;;;;;30.00;20.00;;;;;;;-128.00;-1.00;-1.00;104967;1264;1003844;-75
2023/02/11 06:54:27;;;;;;;27.30;18.70;;;;;;;-128.00;-1.00;-1.00;105004;1264;1004337;-75
2023/02/11 06:56:53;;;;;;;30.00;19.30;;;;;;;-128.00;-1.00;-1.00;104975;1264;1003716;-76
2023/02/11 06:59:20;;;;;;;29.50;20.00;;;;;;;-128.00;-1.00;-1.00;104981;1264;1003679;-75
2023/02/11 07:01:47;;;;;;;31.30;21.20;;;;;;;-128.00;-1.00;-1.00;104988;1264;1003804;-75
2023/02/11 07:04:14;;;;;;;27.20;20.60;;;;;;;-128.00;-1.00;-1.00;104959;1264;1004733;-75
2023/02/11 07:06:40;;;;;;;27.00;19.20;;;;;;;-128.00;-1.00;-1.00;104949;1264;1004763;-75
2023/02/11 07:09:08;;;;;;;29.00;21.50;;;;;;;-128.00;-1.00;-1.00;104735;1264;1004207;-75
2023/02/11 07:11:34;;;;;;;33.20;22.40;;;;;;;-128.00;-1.00;-1.00;104216;1264;1004878;-75
2023/02/11 07:14:09;;;;;;;27.00;19.40;;;;;;;-128.00;-1.00;-1.00;104970;1264;1003439;-75
2023/02/11 07:16:37;;;;;;;28.00;19.40;;;;;;;-128.00;-1.00;-1.00;104980;1264;1055154;-76
2023/02/11 07:19:04;;;;;;;29.00;21.60;;;;;;;-128.00;-1.00;-1.00;104969;1265;1004837;-75
2023/02/11 07:21:30;;;;;;;28.30;21.30;;;;;;;-128.00;-1.00;-1.00;104981;1264;1003257;-75
2023/02/11 07:23:57;;;;;;;30.30;20.70;;;;;;;-128.00;-1.00;-1.00;105002;1264;1004519;-75
2023/02/11 07:26:27;;;;;;;33.70;22.80;;;;;;;-128.00;-1.00;-1.00;104978;1264;1004082;-76
2023/02/11 07:28:54;;;;;;;30.40;21.30;;;;;;;-128.00;-1.00;-1.00;104986;1264;1055457;-74
2023/02/11 07:31:24;;;;;;;33.70;22.20;;;;;;;-128.00;-1.00;-1.00;104960;1264;1004363;-75
2023/02/11 07:33:53;;;;;;;27.00;18.60;;;;;;;-128.00;-1.00;-1.00;104882;1264;1045373;-76
2023/02/11 07:36:23;;;;;;;34.90;22.00;;;;;;;-128.00;-1.00;-1.00;104795;1264;1047666;-75
2023/02/11 07:38:49;;;;;;;30.10;20.70;;;;;;;-128.00;-1.00;-1.00;104965;1264;1062974;-75
2023/02/11 07:41:21;;;;;;;29.50;20.80;;;;;;;-128.00;-1.00;-1.00;104761;1264;1003341;-76
2023/02/11 07:43:48;;;;;;;29.60;19.80;;;;;;;-128.00;-1.00;-1.00;104957;1264;1058807;-75
2023/02/11 07:46:24;;;;;;;30.90;19.50;;;;;;;-128.00;-1.00;-1.00;104970;1264;1003295;-75
2023/02/11 07:48:51;;;;;;;32.70;21.10;;;;;;;-128.00;-1.00;-1.00;104967;1264;1046316;-76
2023/02/11 07:51:24;;;;;;;27.80;20.50;;;;;;;-128.00;-1.00;-1.00;104968;1266;1004382;-75
2023/02/11 07:53:52;;;;;;;27.10;19.40;;;;;;;-128.00;-1.00;-1.00;104837;1263;1055928;-74
2023/02/11 07:56:19;;;;;;;28.90;20.50;;;;;;;-128.00;-1.00;-1.00;104951;1264;1004175;-75
2023/02/11 07:58:46;;;;;;;29.20;20.80;;;;;;;-128.00;-1.00;-1.00;104989;1265;1004365;-75
2023/02/11 08:01:23;;;;;;;28.80;19.70;;;;;;;-128.00;-1.00;-1.00;104966;1264;1005018;-75
2023/02/11 08:03:51;;;;;;;29.20;21.50;;;;;;;-128.00;-1.00;-1.00;104813;1264;1205888;-75
2023/02/11 08:06:21;;;;;;;32.40;22.10;;;;;;;-128.00;-1.00;-1.00;104978;1264;1005778;-75
2023/02/11 08:08:48;;;;;;;31.70;22.10;;;;;;;-128.00;-1.00;-1.00;104964;1264;1059742;-75
2023/02/11 08:11:18;;;;;;;32.10;22.20;;;;;;;-128.00;-1.00;-1.00;104983;1264;1003511;-75
2023/02/11 08:13:45;;;;;;;30.70;21.80;;;;;;;-128.00;-1.00;-1.00;104965;1264;1047800;-75
2023/02/11 08:16:32;;;;;;;33.70;22.60;;;;;;;-128.00;-1.00;-1.00;104980;1264;1004498;-76
2023/02/11 08:19:02;;;;;;;33.10;23.30;;;;;;;-128.00;-1.00;-1.00;104950;1266;1056482;-76
2023/02/11 08:21:29;;;;;;;35.60;22.90;;;;;;;-128.00;-1.00;-1.00;104965;1265;1059178;-75
2023/02/11 08:23:56;;;;;;;33.50;23.20;;;;;;;-128.00;-1.00;-1.00;104781;1264;1005098;-75
2023/02/11 08:26:28;;;;;;;32.20;23.20;;;;;;;-128.00;-1.00;-1.00;104991;1266;1004670;-75
2023/02/11 08:28:56;;;;;;;31.10;21.80;;;;;;;-128.00;-1.00;-1.00;104692;1264;1062002;-75
2023/02/11 08:31:26;;;;;;;31.00;21.20;;;;;;;-128.00;-1.00;-1.00;104930;1264;1004001;-75
2023/02/11 08:33:56;;;;;;;29.30;23.70;;;;;;;-128.00;-1.00;-1.00;104974;1264;1058488;-74
2023/02/11 08:36:24;;;;;;;;;;;;;;;-128.00;-1.00;-1.00;104973;1264;1046969;-75
2023/02/11 08:38:54;;;;;;;31.00;21.40;;;;;;;-128.00;-1.00;-1.00;104981;1264;1004328;-75
2023/02/11 08:41:20;;;;;;;30.20;21.40;;;;;;;-128.00;-1.00;-1.00;104979;1264;1062788;-75
2023/02/11 08:43:48;;;;;;;30.60;22.00;;;;;;;-128.00;-1.00;-1.00;104953;1264;1004233;-75
2023/02/11 08:46:16;;;;;;;31.50;22.10;;;;;;;-128.00;-1.00;-1.00;104952;1264;1004141;-75
2023/02/11 08:48:44;;;;;;;33.00;22.70;;;;;;;-128.00;-1.00;-1.00;104867;1265;1045534;-75
2023/02/11 08:51:15;;;;;;;28.40;21.30;;;;;;;-128.00;-1.00;-1.00;104948;1266;1003733;-76
2023/02/11 08:53:42;;;;;;;29.00;22.00;;;;;;;-128.00;-1.00;-1.00;104270;1265;1061366;-76
2023/02/11 08:56:10;;;;;;;32.90;23.10;;;;;;;-128.00;-1.00;-1.00;104952;1264;1004647;-75
2023/02/11 08:58:37;;;;;;;29.50;22.00;;;;;;;-128.00;-1.00;-1.00;104861;1265;1004335;-75
2023/02/11 09:01:12;;;;;;;31.10;22.30;;;;;;;-128.00;-1.00;-1.00;104878;1265;1004418;-75
2023/02/11 09:03:39;;;;;;;30.40;22.60;;;;;;;-128.00;-1.00;-1.00;104711;1268;1046696;-76
2023/02/11 09:06:07;;;;;;;31.20;23.70;;;;;;;-128.00;-1.00;-1.00;104674;1268;1005107;-75
2023/02/11 09:08:36;;;;;;;29.80;21.60;;;;;;;-128.00;-1.00;-1.00;104674;1268;1004652;-75
2023/02/11 09:11:03;;;;;;;32.20;21.50;;;;;;;-128.00;-1.00;-1.00;104601;1269;1059906;-76
2023/02/11 09:13:31;;;;;;;30.70;21.60;;;;;;;-128.00;-1.00;-1.00;104678;1269;1003895;-75
2023/02/11 09:16:01;;;;;;;28.60;19.50;;;;;;;-128.00;-1.00;-1.00;104325;1275;1004116;-76
2023/02/11 09:18:28;;;;;;;30.70;23.60;;;;;;;-128.00;-1.00;-1.00;104608;1269;1063533;-75
2023/02/11 09:21:08;;;;;;;30.10;23.20;;;;;;;-128.00;-1.00;-1.00;104683;1268;1003838;-75
2023/02/11 09:23:35;;;;;;;28.50;23.60;;;;;;;-128.00;-1.00;-1.00;104666;1269;1060057;-75
2023/02/11 09:26:15;;;;;;;32.50;23.50;;;;;;;-128.00;-1.00;-1.00;104681;1267;1004653;-76
2023/02/11 09:28:43;;;;;;;30.10;22.30;;;;;;;-128.00;-1.00;-1.00;104718;1268;1046721;-76
2023/02/11 09:31:13;;;;;;;29.60;22.50;;;;;;;-128.00;-1.00;-1.00;104680;1267;1004147;-76
2023/02/11 09:33:46;;;;;;;;;;;;;;;-128.00;-1.00;-1.00;104720;1269;1055368;-76
2023/02/11 09:36:16;;;;;;;28.40;22.30;;;;;;;-128.00;-1.00;-1.00;104733;1265;1059627;-75
2023/02/11 09:38:43;;;;;;;27.90;20.00;;;;;;;-128.00;-1.00;-1.00;104869;1265;1045506;-76
2023/02/11 09:41:48;;;;;;;26.80;21.30;;;;;;;-128.00;-1.00;-1.00;104868;1265;1004326;-76
2023/02/11 09:44:22;;;;;;;31.80;22.60;;;;;;;-128.00;-1.00;-1.00;104290;1272;1062229;-76
2023/02/11 09:46:58;;;;;;;30.30;21.90;;;;;;;-128.00;-1.00;-1.00;104339;1272;1056216;-76
2023/02/11 09:49:38;;;;;;;26.70;21.00;;;;;;;-128.00;-1.00;-1.00;104329;1272;1058300;-77
2023/02/11 09:52:25;;;;;;;32.30;22.90;;;;;;;-128.00;-1.00;-1.00;104276;1272;1045320;-76
2023/02/11 09:54:57;;;;;;;30.40;22.70;;;;;;;-128.00;-1.00;-1.00;103274;1279;1047723;-77
2023/02/11 09:57:31;;;;;;;29.30;22.80;;;;;;;-128.00;-1.00;-1.00;103477;1280;1061951;-76
2023/02/11 10:00:00;;;;;;;30.70;22.40;;;;;;;-128.00;-1.00;-1.00;103581;1279;1054662;-76
2023/02/11 10:02:48;;;;;;;28.30;22.80;;;;;;;-128.00;-1.00;-1.00;103538;1280;1061310;-75
2023/02/11 10:05:39;;;;;;;30.40;23.40;;;;;;;-128.00;-1.00;-1.00;103542;1280;1045632;-76
2023/02/11 10:08:24;;;;;;;32.00;23.20;;;;;;;-128.00;-1.00;-1.00;103574;1279;1047565;-75
2023/02/11 10:11:06;;;;;;;32.70;22.90;;;;;;;-128.00;-1.00;-1.00;103575;1279;1061741;-76
2023/02/11 10:13:51;;;;;;;31.50;24.10;;;;;;;-128.00;-1.00;-1.00;103202;1279;1055457;-76
2023/02/11 10:16:17;;;;;;;29.60;23.40;;;;;;;-128.00;-1.00;-1.00;103582;1279;1059488;-76
2023/02/11 10:18:59;;;;;;;30.70;24.00;;;;;;;-128.00;-1.00;-1.00;103554;1280;1004306;-76
2023/02/11 10:21:45;;;;;;;30.40;24.70;;;;;;;-128.00;-1.00;-1.00;103742;1276;1047686;-76
2023/02/11 10:24:14;;;;;;;27.90;22.30;;;;;;;-128.00;-1.00;-1.00;103974;1275;1062217;-75
2023/02/11 10:26:42;;;;;;;33.10;24.00;;;;;;;-128.00;-1.00;-1.00;103933;1275;1056159;-76
2023/02/11 10:29:37;;;;;;;26.10;20.90;;;;;;;-128.00;-1.00;-1.00;103722;1276;1003915;-76
2023/02/11 10:32:33;;;;;;;28.00;22.50;;;;;;;-128.00;-1.00;-1.00;103815;1273;1045432;-76
2023/02/11 10:35:09;;;;;;;28.70;22.90;;;;;;;-128.00;-1.00;-1.00;103649;1279;1046606;-76
2023/02/11 10:37:35;;;;;;;28.50;22.30;;;;;;;-128.00;-1.00;-1.00;103570;1279;1062847;-76
2023/02/11 10:40:03;;;;;;;27.10;23.00;;;;;;;-128.00;-1.00;-1.00;103599;1279;1005015;-77
2023/02/11 10:42:30;;;;;;;27.80;23.10;;;;;;;-128.00;-1.00;-1.00;103547;1278;1004498;-76
2023/02/11 10:45:00;;;;;;;30.00;26.30;;;;;;;-128.00;-1.00;-1.00;103591;1280;1004916;-76
2023/02/11 10:47:31;;;;;;;27.60;23.00;;;;;;;-128.00;-1.00;-1.00;103637;1279;1046467;-76
2023/02/11 10:50:02;;;;;;;29.90;24.30;;;;;;;-128.00;-1.00;-1.00;103615;1279;1062283;-76
2023/02/11 10:52:30;;;;;;;29.20;22.80;;;;;;;-128.00;-1.00;-1.00;103619;1280;1055789;-76
2023/02/11 10:55:01;;;;;;;30.10;23.70;;;;;;;-128.00;-1.00;-1.00;103564;1279;1004904;-76
2023/02/11 10:57:33;;;;;;;27.70;22.00;;;;;;;-128.00;-1.00;-1.00;103573;1279;1045001;-76
2023/02/11 11:00:37;;;;;;;30.00;23.60;;;;;;;-128.00;-1.00;-1.00;103569;1279;1047741;-76
2023/02/11 11:03:24;;;;;;;28.30;23.60;;;;;;;-128.00;-1.00;-1.00;103454;1281;1062215;-76
2023/02/11 11:05:57;;;;;;;27.50;22.80;;;;;;;-128.00;-1.00;-1.00;103446;1281;1056135;-76
2023/02/11 11:08:39;;;;;;;28.90;23.10;;;;;;;-128.00;-1.00;-1.00;103471;1277;1058715;-77
2023/02/11 11:11:28;;;;;;;28.60;24.10;;;;;;;-128.00;-1.00;-1.00;103778;1277;1046839;-77
2023/02/11 11:13:59;;;;;;;31.40;23.60;;;;;;;-128.00;-1.00;-1.00;103986;1273;1048022;-76
2023/02/11 11:16:28;;;;;;;27.80;22.30;;;;;;;-128.00;-1.00;-1.00;104263;1273;1061517;-76
2023/02/11 11:19:07;;;;;;;25.80;21.60;;;;;;;-128.00;-1.00;-1.00;104263;1273;1056084;-77
2023/02/11 11:21:51;;;;;;;28.40;21.80;;;;;;;-128.00;-1.00;-1.00;104202;1273;1059403;-77